sensor_id;sensor_type;location;lat;lon;timestamp;P1;durP1;ratioP1;P2;durP2;ratioP2
60722;SDS011;46574;52.818;6.516;2023-05-17T00:02:08;16.77;;;5.60;;
60722;SDS011;46574;52.818;6.516;2023-05-17T00:04:34;14.40;;;5.45;;
60722;SDS011;46574;52.818;6.516;2023-05-17T00:07:00;12.52;;;5.43;;
60722;SDS011;46574;52.818;6.516;2023-05-17T00:09:25;16.10;;;5.28;;
60722;SDS011;46574;52.818;6.516;2023-05-17T00:11:51;13.95;;;5.35;;
60722;SDS011;46574;52.818;6.516;2023-05-17T00:14:17;14.50;;;5.35;;
60722;SDS011;46574;52.818;6.516;2023-05-17T00:16:42;12.05;;;5.20;;
60722;SDS011;46574;52.818;6.516;2023-05-17T00:19:08;11.63;;;4.95;;
60722;SDS011;46574;52.818;6.516;2023-05-17T00:21:34;12.18;;;4.68;;
60722;SDS011;46574;52.818;6.516;2023-05-17T00:24:00;10.80;;;4.65;;
60722;SDS011;46574;52.818;6.516;2023-05-17T00:26:25;10.65;;;4.43;;
60722;SDS011;46574;52.818;6.516;2023-05-17T00:28:51;11.02;;;4.38;;
60722;SDS011;46574;52.818;6.516;2023-05-17T00:31:17;11.77;;;4.13;;
60722;SDS011;46574;52.818;6.516;2023-05-17T00:33:42;12.00;;;3.90;;
60722;SDS011;46574;52.818;6.516;2023-05-17T00:36:08;12.55;;;3.45;;
60722;SDS011;46574;52.818;6.516;2023-05-17T00:38:34;10.35;;;3.25;;
60722;SDS011;46574;52.818;6.516;2023-05-17T00:40:59;13.40;;;3.83;;
60722;SDS011;46574;52.818;6.516;2023-05-17T00:43:25;8.40;;;3.25;;
60722;SDS011;46574;52.818;6.516;2023-05-17T00:45:51;13.88;;;3.90;;
60722;SDS011;46574;52.818;6.516;2023-05-17T00:48:17;10.82;;;3.78;;
60722;SDS011;46574;52.818;6.516;2023-05-17T00:50:45;17.35;;;3.63;;
60722;SDS011;46574;52.818;6.516;2023-05-17T00:53:12;13.55;;;4.15;;
60722;SDS011;46574;52.818;6.516;2023-05-17T00:55:42;13.70;;;4.18;;
60722;SDS011;46574;52.818;6.516;2023-05-17T00:58:09;15.05;;;4.25;;
60722;SDS011;46574;52.818;6.516;2023-05-17T01:00:36;15.77;;;3.58;;
60722;SDS011;46574;52.818;6.516;2023-05-17T01:03:01;13.70;;;4.03;;
60722;SDS011;46574;52.818;6.516;2023-05-17T01:05:27;13.13;;;3.95;;
60722;SDS011;46574;52.818;6.516;2023-05-17T01:07:54;11.77;;;3.35;;
60722;SDS011;46574;52.818;6.516;2023-05-17T01:10:19;13.98;;;3.60;;
60722;SDS011;46574;52.818;6.516;2023-05-17T01:13:05;12.00;;;3.25;;
60722;SDS011;46574;52.818;6.516;2023-05-17T01:15:35;11.75;;;3.63;;
60722;SDS011;46574;52.818;6.516;2023-05-17T01:18:20;10.98;;;3.35;;
60722;SDS011;46574;52.818;6.516;2023-05-17T01:20:53;9.32;;;3.45;;
60722;SDS011;46574;52.818;6.516;2023-05-17T01:26:09;10.07;;;3.92;;
60722;SDS011;46574;52.818;6.516;2023-05-17T01:28:40;10.80;;;3.30;;
60722;SDS011;46574;52.818;6.516;2023-05-17T01:31:10;8.23;;;3.03;;
60722;SDS011;46574;52.818;6.516;2023-05-17T01:33:37;14.50;;;3.53;;
60722;SDS011;46574;52.818;6.516;2023-05-17T01:36:03;10.80;;;3.13;;
60722;SDS011;46574;52.818;6.516;2023-05-17T01:38:29;10.23;;;3.33;;
60722;SDS011;46574;52.818;6.516;2023-05-17T01:41:00;11.15;;;3.80;;
60722;SDS011;46574;52.818;6.516;2023-05-17T01:43:45;13.57;;;3.75;;
60722;SDS011;46574;52.818;6.516;2023-05-17T01:51:47;13.15;;;3.53;;
60722;SDS011;46574;52.818;6.516;2023-05-17T01:54:19;15.07;;;3.92;;
60722;SDS011;46574;52.818;6.516;2023-05-17T01:56:47;13.27;;;3.75;;
60722;SDS011;46574;52.818;6.516;2023-05-17T01:59:21;9.25;;;3.70;;
60722;SDS011;46574;52.818;6.516;2023-05-17T02:01:49;14.10;;;3.85;;
60722;SDS011;46574;52.818;6.516;2023-05-17T02:04:21;10.68;;;3.25;;
60722;SDS011;46574;52.818;6.516;2023-05-17T02:06:46;13.45;;;3.40;;
60722;SDS011;46574;52.818;6.516;2023-05-17T02:09:12;12.27;;;3.83;;
60722;SDS011;46574;52.818;6.516;2023-05-17T02:11:38;10.80;;;3.58;;
60722;SDS011;46574;52.818;6.516;2023-05-17T02:14:04;18.15;;;4.13;;
60722;SDS011;46574;52.818;6.516;2023-05-17T02:16:29;15.85;;;4.63;;
60722;SDS011;46574;52.818;6.516;2023-05-17T02:18:55;12.50;;;3.50;;
60722;SDS011;46574;52.818;6.516;2023-05-17T02:21:20;14.82;;;4.05;;
60722;SDS011;46574;52.818;6.516;2023-05-17T02:23:46;15.18;;;3.60;;
60722;SDS011;46574;52.818;6.516;2023-05-17T02:26:11;13.10;;;4.20;;
60722;SDS011;46574;52.818;6.516;2023-05-17T02:28:37;18.17;;;3.78;;
60722;SDS011;46574;52.818;6.516;2023-05-17T02:31:03;13.88;;;3.60;;
60722;SDS011;46574;52.818;6.516;2023-05-17T02:33:28;13.85;;;3.47;;
60722;SDS011;46574;52.818;6.516;2023-05-17T02:35:54;17.20;;;4.10;;
60722;SDS011;46574;52.818;6.516;2023-05-17T02:38:19;14.75;;;3.47;;
60722;SDS011;46574;52.818;6.516;2023-05-17T02:40:45;13.23;;;3.67;;
60722;SDS011;46574;52.818;6.516;2023-05-17T02:43:11;14.82;;;3.72;;
60722;SDS011;46574;52.818;6.516;2023-05-17T02:45:36;14.65;;;3.30;;
60722;SDS011;46574;52.818;6.516;2023-05-17T02:48:02;13.65;;;3.30;;
60722;SDS011;46574;52.818;6.516;2023-05-17T02:50:28;13.50;;;3.33;;
60722;SDS011;46574;52.818;6.516;2023-05-17T02:52:53;14.77;;;3.65;;
60722;SDS011;46574;52.818;6.516;2023-05-17T02:55:19;13.95;;;3.17;;
60722;SDS011;46574;52.818;6.516;2023-05-17T02:57:45;11.02;;;3.38;;
60722;SDS011;46574;52.818;6.516;2023-05-17T03:00:11;16.02;;;3.45;;
60722;SDS011;46574;52.818;6.516;2023-05-17T03:02:37;12.48;;;3.42;;
60722;SDS011;46574;52.818;6.516;2023-05-17T03:05:02;14.88;;;3.40;;
60722;SDS011;46574;52.818;6.516;2023-05-17T03:07:28;12.13;;;2.80;;
60722;SDS011;46574;52.818;6.516;2023-05-17T03:09:54;11.15;;;3.60;;
60722;SDS011;46574;52.818;6.516;2023-05-17T03:12:20;16.17;;;3.47;;
60722;SDS011;46574;52.818;6.516;2023-05-17T03:14:45;12.88;;;3.65;;
60722;SDS011;46574;52.818;6.516;2023-05-17T03:17:11;11.98;;;3.60;;
60722;SDS011;46574;52.818;6.516;2023-05-17T03:19:37;13.80;;;3.72;;
60722;SDS011;46574;52.818;6.516;2023-05-17T03:22:02;15.02;;;2.97;;
60722;SDS011;46574;52.818;6.516;2023-05-17T03:24:28;11.02;;;3.13;;
60722;SDS011;46574;52.818;6.516;2023-05-17T03:26:54;12.90;;;2.78;;
60722;SDS011;46574;52.818;6.516;2023-05-17T03:29:19;11.43;;;3.40;;
60722;SDS011;46574;52.818;6.516;2023-05-17T03:31:45;12.10;;;3.35;;
60722;SDS011;46574;52.818;6.516;2023-05-17T03:34:11;12.93;;;3.47;;
60722;SDS011;46574;52.818;6.516;2023-05-17T03:36:37;9.52;;;3.53;;
60722;SDS011;46574;52.818;6.516;2023-05-17T03:39:03;16.15;;;3.85;;
60722;SDS011;46574;52.818;6.516;2023-05-17T03:41:29;11.50;;;4.47;;
60722;SDS011;46574;52.818;6.516;2023-05-17T03:43:56;14.60;;;3.75;;
60722;SDS011;46574;52.818;6.516;2023-05-17T03:46:22;9.75;;;3.90;;
60722;SDS011;46574;52.818;6.516;2023-05-17T03:48:47;15.10;;;3.45;;
60722;SDS011;46574;52.818;6.516;2023-05-17T03:51:13;10.20;;;3.00;;
60722;SDS011;46574;52.818;6.516;2023-05-17T03:53:40;12.32;;;3.40;;
60722;SDS011;46574;52.818;6.516;2023-05-17T03:56:07;15.05;;;3.60;;
60722;SDS011;46574;52.818;6.516;2023-05-17T03:58:33;12.90;;;3.13;;
60722;SDS011;46574;52.818;6.516;2023-05-17T04:00:59;10.93;;;3.38;;
60722;SDS011;46574;52.818;6.516;2023-05-17T04:03:25;13.32;;;3.08;;
60722;SDS011;46574;52.818;6.516;2023-05-17T04:05:50;13.35;;;3.67;;
60722;SDS011;46574;52.818;6.516;2023-05-17T04:08:16;10.60;;;3.65;;
60722;SDS011;46574;52.818;6.516;2023-05-17T04:10:42;8.77;;;3.03;;
60722;SDS011;46574;52.818;6.516;2023-05-17T04:13:08;10.32;;;3.58;;
60722;SDS011;46574;52.818;6.516;2023-05-17T04:15:34;7.82;;;3.20;;
60722;SDS011;46574;52.818;6.516;2023-05-17T04:18:00;13.02;;;3.10;;
60722;SDS011;46574;52.818;6.516;2023-05-17T04:20:26;12.85;;;2.97;;
60722;SDS011;46574;52.818;6.516;2023-05-17T04:22:51;8.85;;;3.45;;
60722;SDS011;46574;52.818;6.516;2023-05-17T04:25:17;9.35;;;3.17;;
60722;SDS011;46574;52.818;6.516;2023-05-17T04:27:44;9.63;;;2.78;;
60722;SDS011;46574;52.818;6.516;2023-05-17T04:30:10;12.48;;;3.30;;
60722;SDS011;46574;52.818;6.516;2023-05-17T04:32:36;14.60;;;3.10;;
60722;SDS011;46574;52.818;6.516;2023-05-17T04:35:02;8.00;;;3.30;;
60722;SDS011;46574;52.818;6.516;2023-05-17T04:37:28;9.02;;;2.53;;
60722;SDS011;46574;52.818;6.516;2023-05-17T04:39:54;11.63;;;2.90;;
60722;SDS011;46574;52.818;6.516;2023-05-17T04:42:23;13.70;;;3.42;;
60722;SDS011;46574;52.818;6.516;2023-05-17T04:44:48;10.45;;;2.95;;
60722;SDS011;46574;52.818;6.516;2023-05-17T04:47:14;10.00;;;2.63;;
60722;SDS011;46574;52.818;6.516;2023-05-17T04:49:40;12.45;;;3.17;;
60722;SDS011;46574;52.818;6.516;2023-05-17T04:52:05;8.77;;;2.60;;
60722;SDS011;46574;52.818;6.516;2023-05-17T04:54:31;6.30;;;2.60;;
60722;SDS011;46574;52.818;6.516;2023-05-17T04:56:57;9.43;;;2.58;;
60722;SDS011;46574;52.818;6.516;2023-05-17T04:59:22;13.77;;;3.58;;
60722;SDS011;46574;52.818;6.516;2023-05-17T05:01:48;12.52;;;3.35;;
60722;SDS011;46574;52.818;6.516;2023-05-17T05:04:13;9.55;;;2.83;;
60722;SDS011;46574;52.818;6.516;2023-05-17T05:06:39;8.98;;;2.80;;
60722;SDS011;46574;52.818;6.516;2023-05-17T05:09:05;8.30;;;3.10;;
60722;SDS011;46574;52.818;6.516;2023-05-17T05:11:31;11.50;;;2.90;;
60722;SDS011;46574;52.818;6.516;2023-05-17T05:13:56;11.15;;;3.38;;
60722;SDS011;46574;52.818;6.516;2023-05-17T05:16:25;10.85;;;2.90;;
60722;SDS011;46574;52.818;6.516;2023-05-17T05:18:51;9.02;;;2.60;;
60722;SDS011;46574;52.818;6.516;2023-05-17T05:21:16;10.40;;;3.05;;
60722;SDS011;46574;52.818;6.516;2023-05-17T05:23:42;5.95;;;3.17;;
60722;SDS011;46574;52.818;6.516;2023-05-17T05:26:08;9.90;;;2.72;;
60722;SDS011;46574;52.818;6.516;2023-05-17T05:28:33;8.25;;;2.80;;
60722;SDS011;46574;52.818;6.516;2023-05-17T05:30:59;8.57;;;2.45;;
60722;SDS011;46574;52.818;6.516;2023-05-17T05:33:25;11.40;;;2.80;;
60722;SDS011;46574;52.818;6.516;2023-05-17T05:35:51;6.35;;;2.25;;
60722;SDS011;46574;52.818;6.516;2023-05-17T05:38:16;8.07;;;3.08;;
60722;SDS011;46574;52.818;6.516;2023-05-17T05:40:44;10.35;;;2.65;;
60722;SDS011;46574;52.818;6.516;2023-05-17T05:43:10;9.20;;;2.78;;
60722;SDS011;46574;52.818;6.516;2023-05-17T05:45:36;6.53;;;2.30;;
60722;SDS011;46574;52.818;6.516;2023-05-17T05:48:05;10.15;;;2.33;;
60722;SDS011;46574;52.818;6.516;2023-05-17T05:50:33;6.90;;;2.25;;
60722;SDS011;46574;52.818;6.516;2023-05-17T05:52:58;9.07;;;3.00;;
60722;SDS011;46574;52.818;6.516;2023-05-17T05:55:25;6.65;;;2.63;;
60722;SDS011;46574;52.818;6.516;2023-05-17T05:57:51;8.75;;;2.28;;
60722;SDS011;46574;52.818;6.516;2023-05-17T06:00:16;7.07;;;2.42;;
60722;SDS011;46574;52.818;6.516;2023-05-17T06:02:42;6.57;;;2.10;;
60722;SDS011;46574;52.818;6.516;2023-05-17T06:05:08;6.00;;;2.33;;
60722;SDS011;46574;52.818;6.516;2023-05-17T06:07:33;6.20;;;1.83;;
60722;SDS011;46574;52.818;6.516;2023-05-17T06:09:59;7.53;;;1.98;;
60722;SDS011;46574;52.818;6.516;2023-05-17T06:12:25;6.28;;;1.80;;
60722;SDS011;46574;52.818;6.516;2023-05-17T06:14:50;7.25;;;2.13;;
60722;SDS011;46574;52.818;6.516;2023-05-17T06:17:16;5.55;;;1.65;;
60722;SDS011;46574;52.818;6.516;2023-05-17T06:19:41;5.68;;;1.33;;
60722;SDS011;46574;52.818;6.516;2023-05-17T06:22:07;5.72;;;1.52;;
60722;SDS011;46574;52.818;6.516;2023-05-17T06:24:33;6.80;;;1.77;;
60722;SDS011;46574;52.818;6.516;2023-05-17T06:26:58;9.88;;;1.88;;
60722;SDS011;46574;52.818;6.516;2023-05-17T06:29:24;8.25;;;2.00;;
60722;SDS011;46574;52.818;6.516;2023-05-17T06:31:49;8.40;;;1.50;;
60722;SDS011;46574;52.818;6.516;2023-05-17T06:34:15;5.97;;;1.38;;
60722;SDS011;46574;52.818;6.516;2023-05-17T06:36:41;7.30;;;1.33;;
60722;SDS011;46574;52.818;6.516;2023-05-17T06:39:06;7.72;;;1.65;;
60722;SDS011;46574;52.818;6.516;2023-05-17T06:41:32;7.55;;;1.65;;
60722;SDS011;46574;52.818;6.516;2023-05-17T06:43:58;5.68;;;1.60;;
60722;SDS011;46574;52.818;6.516;2023-05-17T06:46:24;4.85;;;1.45;;
60722;SDS011;46574;52.818;6.516;2023-05-17T06:48:50;4.45;;;1.50;;
60722;SDS011;46574;52.818;6.516;2023-05-17T06:51:15;5.10;;;1.40;;
60722;SDS011;46574;52.818;6.516;2023-05-17T06:53:41;8.45;;;1.75;;
60722;SDS011;46574;52.818;6.516;2023-05-17T06:56:06;5.72;;;1.70;;
60722;SDS011;46574;52.818;6.516;2023-05-17T06:58:32;5.03;;;1.65;;
60722;SDS011;46574;52.818;6.516;2023-05-17T07:00:59;6.05;;;1.50;;
60722;SDS011;46574;52.818;6.516;2023-05-17T07:03:25;7.47;;;1.77;;
60722;SDS011;46574;52.818;6.516;2023-05-17T07:05:51;10.02;;;2.50;;
60722;SDS011;46574;52.818;6.516;2023-05-17T07:08:16;7.22;;;1.80;;
60722;SDS011;46574;52.818;6.516;2023-05-17T07:10:42;7.20;;;1.83;;
60722;SDS011;46574;52.818;6.516;2023-05-17T07:13:08;10.18;;;2.40;;
60722;SDS011;46574;52.818;6.516;2023-05-17T07:15:33;9.27;;;2.20;;
60722;SDS011;46574;52.818;6.516;2023-05-17T07:17:59;4.57;;;1.60;;
60722;SDS011;46574;52.818;6.516;2023-05-17T07:20:25;6.47;;;1.70;;
60722;SDS011;46574;52.818;6.516;2023-05-17T07:22:50;6.55;;;1.95;;
60722;SDS011;46574;52.818;6.516;2023-05-17T07:25:16;10.73;;;2.05;;
60722;SDS011;46574;52.818;6.516;2023-05-17T07:27:45;6.35;;;1.77;;
60722;SDS011;46574;52.818;6.516;2023-05-17T07:30:10;7.40;;;1.83;;
60722;SDS011;46574;52.818;6.516;2023-05-17T07:32:36;8.13;;;2.53;;
60722;SDS011;46574;52.818;6.516;2023-05-17T07:35:02;7.40;;;2.08;;
60722;SDS011;46574;52.818;6.516;2023-05-17T07:37:28;7.38;;;2.58;;
60722;SDS011;46574;52.818;6.516;2023-05-17T07:39:53;7.88;;;1.88;;
60722;SDS011;46574;52.818;6.516;2023-05-17T07:42:19;10.10;;;2.20;;
60722;SDS011;46574;52.818;6.516;2023-05-17T07:44:45;8.23;;;2.45;;
60722;SDS011;46574;52.818;6.516;2023-05-17T07:47:12;10.18;;;2.30;;
60722;SDS011;46574;52.818;6.516;2023-05-17T07:49:38;6.47;;;1.95;;
60722;SDS011;46574;52.818;6.516;2023-05-17T07:52:04;10.73;;;2.92;;
60722;SDS011;46574;52.818;6.516;2023-05-17T07:54:30;11.07;;;2.40;;
60722;SDS011;46574;52.818;6.516;2023-05-17T07:56:55;9.18;;;2.17;;
60722;SDS011;46574;52.818;6.516;2023-05-17T07:59:21;9.13;;;2.40;;
60722;SDS011;46574;52.818;6.516;2023-05-17T08:01:47;7.90;;;2.30;;
60722;SDS011;46574;52.818;6.516;2023-05-17T08:04:14;7.28;;;1.60;;
60722;SDS011;46574;52.818;6.516;2023-05-17T08:06:40;7.35;;;1.95;;
60722;SDS011;46574;52.818;6.516;2023-05-17T08:09:07;8.82;;;2.10;;
60722;SDS011;46574;52.818;6.516;2023-05-17T08:11:33;8.60;;;1.75;;
60722;SDS011;46574;52.818;6.516;2023-05-17T08:14:01;6.10;;;1.75;;
60722;SDS011;46574;52.818;6.516;2023-05-17T08:16:27;7.22;;;2.25;;
60722;SDS011;46574;52.818;6.516;2023-05-17T08:18:53;8.63;;;1.85;;
60722;SDS011;46574;52.818;6.516;2023-05-17T08:21:19;6.00;;;2.08;;
60722;SDS011;46574;52.818;6.516;2023-05-17T08:23:44;9.07;;;2.78;;
60722;SDS011;46574;52.818;6.516;2023-05-17T08:26:10;11.55;;;2.03;;
60722;SDS011;46574;52.818;6.516;2023-05-17T08:28:37;6.55;;;1.63;;
60722;SDS011;46574;52.818;6.516;2023-05-17T08:31:03;7.30;;;2.15;;
60722;SDS011;46574;52.818;6.516;2023-05-17T08:33:28;7.82;;;2.38;;
60722;SDS011;46574;52.818;6.516;2023-05-17T08:35:54;12.63;;;2.33;;
60722;SDS011;46574;52.818;6.516;2023-05-17T08:38:21;5.63;;;2.00;;
60722;SDS011;46574;52.818;6.516;2023-05-17T08:40:53;7.55;;;2.95;;
60722;SDS011;46574;52.818;6.516;2023-05-17T08:43:20;5.38;;;1.85;;
60722;SDS011;46574;52.818;6.516;2023-05-17T08:45:48;5.20;;;1.90;;
60722;SDS011;46574;52.818;6.516;2023-05-17T08:48:15;10.13;;;2.03;;
60722;SDS011;46574;52.818;6.516;2023-05-17T08:50:43;8.82;;;2.60;;
60722;SDS011;46574;52.818;6.516;2023-05-17T08:53:11;7.32;;;2.00;;
60722;SDS011;46574;52.818;6.516;2023-05-17T08:55:39;7.90;;;2.30;;
60722;SDS011;46574;52.818;6.516;2023-05-17T08:58:07;7.07;;;2.20;;
60722;SDS011;46574;52.818;6.516;2023-05-17T09:00:34;6.80;;;1.95;;
60722;SDS011;46574;52.818;6.516;2023-05-17T09:03:00;10.55;;;2.53;;
60722;SDS011;46574;52.818;6.516;2023-05-17T09:05:26;6.80;;;2.58;;
60722;SDS011;46574;52.818;6.516;2023-05-17T09:07:52;9.07;;;2.08;;
60722;SDS011;46574;52.818;6.516;2023-05-17T09:10:19;6.18;;;1.92;;
60722;SDS011;46574;52.818;6.516;2023-05-17T09:12:45;8.88;;;2.22;;
60722;SDS011;46574;52.818;6.516;2023-05-17T09:15:11;7.00;;;2.22;;
60722;SDS011;46574;52.818;6.516;2023-05-17T09:17:41;7.00;;;2.13;;
60722;SDS011;46574;52.818;6.516;2023-05-17T09:20:07;7.05;;;2.28;;
60722;SDS011;46574;52.818;6.516;2023-05-17T09:22:34;8.00;;;1.67;;
60722;SDS011;46574;52.818;6.516;2023-05-17T09:27:30;8.70;;;1.90;;
60722;SDS011;46574;52.818;6.516;2023-05-17T09:29:56;7.63;;;2.05;;
60722;SDS011;46574;52.818;6.516;2023-05-17T09:32:22;5.90;;;2.10;;
60722;SDS011;46574;52.818;6.516;2023-05-17T09:34:52;8.35;;;2.20;;
60722;SDS011;46574;52.818;6.516;2023-05-17T09:37:21;6.45;;;1.65;;
60722;SDS011;46574;52.818;6.516;2023-05-17T09:39:47;11.10;;;2.15;;
60722;SDS011;46574;52.818;6.516;2023-05-17T09:42:13;6.78;;;2.10;;
60722;SDS011;46574;52.818;6.516;2023-05-17T09:44:44;6.93;;;1.98;;
60722;SDS011;46574;52.818;6.516;2023-05-17T09:47:20;5.50;;;1.80;;
60722;SDS011;46574;52.818;6.516;2023-05-17T09:49:56;8.57;;;2.38;;
60722;SDS011;46574;52.818;6.516;2023-05-17T09:52:25;7.60;;;2.63;;
60722;SDS011;46574;52.818;6.516;2023-05-17T09:54:59;11.50;;;2.33;;
60722;SDS011;46574;52.818;6.516;2023-05-17T09:57:26;8.20;;;2.55;;
60722;SDS011;46574;52.818;6.516;2023-05-17T10:00:00;7.40;;;1.90;;
60722;SDS011;46574;52.818;6.516;2023-05-17T10:02:27;7.88;;;2.40;;
60722;SDS011;46574;52.818;6.516;2023-05-17T10:04:57;8.18;;;2.40;;
60722;SDS011;46574;52.818;6.516;2023-05-17T10:07:23;8.70;;;2.30;;
60722;SDS011;46574;52.818;6.516;2023-05-17T10:09:51;7.40;;;2.22;;
60722;SDS011;46574;52.818;6.516;2023-05-17T10:12:20;10.10;;;2.42;;
60722;SDS011;46574;52.818;6.516;2023-05-17T10:14:47;6.95;;;1.83;;
60722;SDS011;46574;52.818;6.516;2023-05-17T10:17:13;6.28;;;2.67;;
60722;SDS011;46574;52.818;6.516;2023-05-17T10:19:39;7.32;;;1.83;;
60722;SDS011;46574;52.818;6.516;2023-05-17T10:22:06;9.65;;;1.95;;
60722;SDS011;46574;52.818;6.516;2023-05-17T10:24:33;7.50;;;2.28;;
60722;SDS011;46574;52.818;6.516;2023-05-17T10:27:03;7.10;;;1.70;;
60722;SDS011;46574;52.818;6.516;2023-05-17T10:29:32;7.45;;;2.15;;
60722;SDS011;46574;52.818;6.516;2023-05-17T10:34:27;6.30;;;2.20;;
60722;SDS011;46574;52.818;6.516;2023-05-17T10:36:54;8.02;;;2.28;;
60722;SDS011;46574;52.818;6.516;2023-05-17T10:39:21;8.18;;;2.13;;
60722;SDS011;46574;52.818;6.516;2023-05-17T10:41:50;6.55;;;2.03;;
60722;SDS011;46574;52.818;6.516;2023-05-17T10:44:17;7.38;;;2.10;;
60722;SDS011;46574;52.818;6.516;2023-05-17T10:46:55;5.90;;;1.67;;
60722;SDS011;46574;52.818;6.516;2023-05-17T10:49:23;6.13;;;1.80;;
60722;SDS011;46574;52.818;6.516;2023-05-17T10:51:50;8.57;;;2.00;;
60722;SDS011;46574;52.818;6.516;2023-05-17T10:54:21;7.30;;;2.15;;
60722;SDS011;46574;52.818;6.516;2023-05-17T10:57:00;5.03;;;1.80;;
60722;SDS011;46574;52.818;6.516;2023-05-17T10:59:28;5.45;;;1.58;;
60722;SDS011;46574;52.818;6.516;2023-05-17T11:01:59;7.72;;;1.98;;
60722;SDS011;46574;52.818;6.516;2023-05-17T11:04:37;7.82;;;1.65;;
60722;SDS011;46574;52.818;6.516;2023-05-17T11:09:43;8.13;;;2.22;;
60722;SDS011;46574;52.818;6.516;2023-05-17T11:12:11;7.38;;;1.70;;
60722;SDS011;46574;52.818;6.516;2023-05-17T11:22:16;6.88;;;1.90;;
60722;SDS011;46574;52.818;6.516;2023-05-17T11:24:45;5.15;;;1.60;;
60722;SDS011;46574;52.818;6.516;2023-05-17T11:27:15;5.57;;;1.90;;
60722;SDS011;46574;52.818;6.516;2023-05-17T11:29:45;6.75;;;1.70;;
60722;SDS011;46574;52.818;6.516;2023-05-17T11:32:12;5.60;;;1.67;;
60722;SDS011;46574;52.818;6.516;2023-05-17T11:34:37;4.72;;;1.75;;
60722;SDS011;46574;52.818;6.516;2023-05-17T11:37:03;5.38;;;1.67;;
60722;SDS011;46574;52.818;6.516;2023-05-17T11:39:36;5.90;;;2.08;;
60722;SDS011;46574;52.818;6.516;2023-05-17T11:42:01;5.15;;;1.70;;
60722;SDS011;46574;52.818;6.516;2023-05-17T11:44:28;5.68;;;1.40;;
60722;SDS011;46574;52.818;6.516;2023-05-17T11:47:05;4.75;;;1.55;;
60722;SDS011;46574;52.818;6.516;2023-05-17T11:49:36;5.75;;;2.17;;
60722;SDS011;46574;52.818;6.516;2023-05-17T11:52:06;6.20;;;1.45;;
60722;SDS011;46574;52.818;6.516;2023-05-17T11:54:32;6.90;;;1.75;;
60722;SDS011;46574;52.818;6.516;2023-05-17T11:56:59;7.40;;;2.22;;
60722;SDS011;46574;52.818;6.516;2023-05-17T11:59:27;8.77;;;2.33;;
60722;SDS011;46574;52.818;6.516;2023-05-17T12:01:53;7.15;;;1.90;;
60722;SDS011;46574;52.818;6.516;2023-05-17T12:04:23;4.88;;;1.70;;
60722;SDS011;46574;52.818;6.516;2023-05-17T12:06:50;6.20;;;1.77;;
60722;SDS011;46574;52.818;6.516;2023-05-17T12:09:17;4.15;;;1.45;;
60722;SDS011;46574;52.818;6.516;2023-05-17T12:11:43;7.63;;;2.55;;
60722;SDS011;46574;52.818;6.516;2023-05-17T12:14:09;5.15;;;1.58;;
60722;SDS011;46574;52.818;6.516;2023-05-17T12:16:38;4.90;;;1.98;;
60722;SDS011;46574;52.818;6.516;2023-05-17T12:19:15;5.00;;;1.58;;
60722;SDS011;46574;52.818;6.516;2023-05-17T12:21:42;6.05;;;1.67;;
60722;SDS011;46574;52.818;6.516;2023-05-17T12:24:08;7.53;;;2.00;;
60722;SDS011;46574;52.818;6.516;2023-05-17T12:26:34;6.93;;;2.10;;
60722;SDS011;46574;52.818;6.516;2023-05-17T12:29:06;5.25;;;1.75;;
60722;SDS011;46574;52.818;6.516;2023-05-17T12:31:35;5.00;;;1.65;;
60722;SDS011;46574;52.818;6.516;2023-05-17T12:34:04;5.00;;;1.50;;
60722;SDS011;46574;52.818;6.516;2023-05-17T12:36:31;7.43;;;2.00;;
60722;SDS011;46574;52.818;6.516;2023-05-17T12:39:03;9.18;;;1.92;;
60722;SDS011;46574;52.818;6.516;2023-05-17T12:41:33;6.32;;;2.10;;
60722;SDS011;46574;52.818;6.516;2023-05-17T12:43:59;5.78;;;2.10;;
60722;SDS011;46574;52.818;6.516;2023-05-17T12:46:25;7.28;;;1.85;;
60722;SDS011;46574;52.818;6.516;2023-05-17T12:48:53;9.20;;;2.78;;
60722;SDS011;46574;52.818;6.516;2023-05-17T12:53:48;5.43;;;1.58;;
60722;SDS011;46574;52.818;6.516;2023-05-17T12:56:22;9.25;;;2.08;;
60722;SDS011;46574;52.818;6.516;2023-05-17T13:01:53;6.18;;;1.73;;
60722;SDS011;46574;52.818;6.516;2023-05-17T13:04:27;6.15;;;1.92;;
60722;SDS011;46574;52.818;6.516;2023-05-17T13:07:04;6.60;;;2.20;;
60722;SDS011;46574;52.818;6.516;2023-05-17T13:09:31;6.95;;;1.85;;
60722;SDS011;46574;52.818;6.516;2023-05-17T13:11:58;5.85;;;1.60;;
60722;SDS011;46574;52.818;6.516;2023-05-17T13:17:11;6.47;;;2.05;;
60722;SDS011;46574;52.818;6.516;2023-05-17T13:19:48;7.55;;;1.85;;
60722;SDS011;46574;52.818;6.516;2023-05-17T13:22:14;11.10;;;2.10;;
60722;SDS011;46574;52.818;6.516;2023-05-17T13:24:40;6.40;;;2.03;;
60722;SDS011;46574;52.818;6.516;2023-05-17T13:27:07;6.28;;;1.70;;
60722;SDS011;46574;52.818;6.516;2023-05-17T13:29:34;4.07;;;1.80;;
60722;SDS011;46574;52.818;6.516;2023-05-17T13:32:02;5.63;;;1.70;;
60722;SDS011;46574;52.818;6.516;2023-05-17T13:34:27;5.90;;;2.47;;
60722;SDS011;46574;52.818;6.516;2023-05-17T13:36:53;4.60;;;2.00;;
60722;SDS011;46574;52.818;6.516;2023-05-17T13:39:21;5.88;;;2.15;;
60722;SDS011;46574;52.818;6.516;2023-05-17T13:41:47;4.47;;;1.63;;
60722;SDS011;46574;52.818;6.516;2023-05-17T13:44:13;4.72;;;2.00;;
60722;SDS011;46574;52.818;6.516;2023-05-17T13:46:39;5.60;;;1.83;;
60722;SDS011;46574;52.818;6.516;2023-05-17T13:49:04;6.72;;;1.80;;
60722;SDS011;46574;52.818;6.516;2023-05-17T13:51:32;5.18;;;1.73;;
60722;SDS011;46574;52.818;6.516;2023-05-17T13:53:58;3.28;;;1.73;;
60722;SDS011;46574;52.818;6.516;2023-05-17T13:56:24;4.57;;;1.95;;
60722;SDS011;46574;52.818;6.516;2023-05-17T13:58:50;6.70;;;1.90;;
60722;SDS011;46574;52.818;6.516;2023-05-17T14:01:16;5.05;;;2.05;;
60722;SDS011;46574;52.818;6.516;2023-05-17T14:03:43;6.05;;;2.00;;
60722;SDS011;46574;52.818;6.516;2023-05-17T14:06:09;6.88;;;1.58;;
60722;SDS011;46574;52.818;6.516;2023-05-17T14:08:35;4.70;;;1.63;;
60722;SDS011;46574;52.818;6.516;2023-05-17T14:11:01;6.10;;;1.77;;
60722;SDS011;46574;52.818;6.516;2023-05-17T14:13:27;6.63;;;1.98;;
60722;SDS011;46574;52.818;6.516;2023-05-17T14:15:52;5.72;;;1.88;;
60722;SDS011;46574;52.818;6.516;2023-05-17T14:18:18;6.95;;;1.90;;
60722;SDS011;46574;52.818;6.516;2023-05-17T14:20:44;5.00;;;2.13;;
60722;SDS011;46574;52.818;6.516;2023-05-17T14:23:09;5.43;;;1.92;;
60722;SDS011;46574;52.818;6.516;2023-05-17T14:25:35;6.20;;;2.00;;
60722;SDS011;46574;52.818;6.516;2023-05-17T14:28:01;5.35;;;1.55;;
60722;SDS011;46574;52.818;6.516;2023-05-17T14:30:27;7.13;;;1.90;;
60722;SDS011;46574;52.818;6.516;2023-05-17T14:32:52;4.70;;;2.00;;
60722;SDS011;46574;52.818;6.516;2023-05-17T14:35:18;4.88;;;1.90;;
60722;SDS011;46574;52.818;6.516;2023-05-17T14:37:44;8.05;;;1.98;;
60722;SDS011;46574;52.818;6.516;2023-05-17T14:40:09;8.07;;;2.08;;
60722;SDS011;46574;52.818;6.516;2023-05-17T14:42:36;5.90;;;2.00;;
60722;SDS011;46574;52.818;6.516;2023-05-17T14:45:02;8.00;;;2.42;;
60722;SDS011;46574;52.818;6.516;2023-05-17T14:47:29;5.50;;;1.98;;
60722;SDS011;46574;52.818;6.516;2023-05-17T14:49:54;3.97;;;1.55;;
60722;SDS011;46574;52.818;6.516;2023-05-17T14:52:20;4.75;;;1.60;;
60722;SDS011;46574;52.818;6.516;2023-05-17T14:54:46;6.18;;;1.92;;
60722;SDS011;46574;52.818;6.516;2023-05-17T14:57:11;6.72;;;1.88;;
60722;SDS011;46574;52.818;6.516;2023-05-17T14:59:37;4.00;;;1.73;;
60722;SDS011;46574;52.818;6.516;2023-05-17T15:02:04;5.78;;;1.65;;
60722;SDS011;46574;52.818;6.516;2023-05-17T15:04:29;4.85;;;1.73;;
60722;SDS011;46574;52.818;6.516;2023-05-17T15:06:55;6.90;;;2.22;;
60722;SDS011;46574;52.818;6.516;2023-05-17T15:09:21;4.28;;;1.88;;
60722;SDS011;46574;52.818;6.516;2023-05-17T15:11:48;6.32;;;1.58;;
60722;SDS011;46574;52.818;6.516;2023-05-17T15:14:14;5.18;;;2.00;;